Time;durP1;ratioP1;P1;durP2;ratioP2;P2;SDS_P1;SDS_P2;PMS_P1;PMS_P2;Temp;Humidity;BMP_temperature;BMP_pressure;BME280_temperature;BME280_humidity;BME280_pressure;Samples;Min_cycle;Max_cycle;Signal;HPM_P1;HPM_P2
2021/09/19 00:03:28;;;;;;;1.70;1.30;;;;;;;14.13;52.25;101079.28;8020212;28;20147;-68
2021/09/19 00:07:19;;;;;;;2.22;1.70;;;;;;;14.04;52.36;101078.19;8019005;28;20032;-68
2021/09/19 00:11:10;;;;;;;1.85;1.55;;;;;;;14.05;52.26;101079.84;8026776;28;20115;-67
2021/09/19 00:15:03;;;;;;;1.70;1.50;;;;;;;13.98;52.27;101060.16;8025361;28;20039;-68
2021/09/19 00:18:54;;;;;;;1.60;1.40;;;;;;;13.95;52.31;101064.84;8028699;28;20036;-68
2021/09/19 00:22:45;;;;;;;2.13;1.63;;;;;;;13.92;52.43;101066.75;9051055;22;20113;-68
2021/09/19 00:26:36;;;;;;;2.65;1.73;;;;;;;13.87;52.44;101062.78;8021856;28;20404;-68
2021/09/19 00:30:27;;;;;;;3.17;1.42;;;;;;;13.83;52.50;101070.13;8029577;28;20506;-69
2021/09/19 00:34:17;;;;;;;2.17;1.58;;;;;;;13.79;52.46;101073.94;8042671;28;20474;-69
2021/09/19 00:38:08;;;;;;;1.52;1.38;;;;;;;13.75;52.30;101069.88;8047350;28;20442;-68
2021/09/19 00:41:59;;;;;;;1.63;1.17;;;;;;;13.71;52.64;101068.41;8049417;28;20036;-68
2021/09/19 00:45:49;;;;;;;1.30;1.20;;;;;;;13.66;52.74;101062.63;8057510;28;20028;-69
2021/09/19 00:49:40;;;;;;;2.55;1.20;;;;;;;13.63;52.75;101062.88;8049486;28;20066;-68
2021/09/19 00:53:36;;;;;;;2.13;1.40;;;;;;;13.59;52.72;101064.06;8056986;28;20039;-68
2021/09/19 00:57:27;;;;;;;1.63;1.40;;;;;;;13.57;52.77;101068.59;8056953;28;20036;-68
2021/09/19 01:01:19;;;;;;;2.63;1.35;;;;;;;13.55;52.77;101064.41;8057202;28;20032;-68
2021/09/19 01:05:24;;;;;;;2.00;1.30;;;;;;;13.51;52.71;101063.75;8056847;28;20036;-68
2021/09/19 01:09:16;;;;;;;1.33;1.10;;;;;;;13.46;52.64;101063.28;8045611;28;20121;-68
2021/09/19 01:13:07;;;;;;;1.75;1.50;;;;;;;13.37;52.83;101061.31;8047023;28;20022;-68
2021/09/19 01:16:58;;;;;;;1.42;1.10;;;;;;;13.39;52.85;101062.88;8056970;28;20618;-68
2021/09/19 01:20:48;;;;;;;1.77;1.15;;;;;;;13.35;52.98;101058.78;8053588;28;20103;-68
2021/09/19 01:24:39;;;;;;;1.48;1.35;;;;;;;13.32;52.92;101051.09;8059678;28;20404;-69
2021/09/19 01:28:31;;;;;;;1.65;1.20;;;;;;;13.28;52.82;101054.06;8055087;28;20036;-68
2021/09/19 01:32:22;;;;;;;1.10;1.02;;;;;;;13.24;52.91;101045.56;8054040;28;20040;-69
2021/09/19 01:36:14;;;;;;;7.57;1.60;;;;;;;13.22;52.82;101049.28;8054202;28;20039;-68
2021/09/19 01:40:06;;;;;;;1.52;1.05;;;;;;;13.17;52.88;101044.34;8057185;28;20050;-68
2021/09/19 01:43:57;;;;;;;1.73;1.20;;;;;;;13.10;52.81;101036.97;8054966;28;20110;-68
2021/09/19 01:47:47;;;;;;;1.50;1.13;;;;;;;13.11;53.03;101041.28;8055619;28;20088;-68
2021/09/19 01:51:38;;;;;;;4.07;1.40;;;;;;;13.08;53.11;101038.88;8055680;28;20031;-68
2021/09/19 01:55:29;;;;;;;2.33;1.42;;;;;;;13.06;53.14;101038.16;8051560;28;20047;-68
2021/09/19 01:59:20;;;;;;;2.90;1.52;;;;;;;13.03;53.08;101039.22;8053695;28;20055;-68
2021/09/19 02:03:11;;;;;;;1.30;1.00;;;;;;;13.01;53.26;101030.59;8053846;28;20435;-68
2021/09/19 02:07:01;;;;;;;3.95;1.40;;;;;;;12.91;53.34;101019.88;8052443;28;20065;-68
2021/09/19 02:10:52;;;;;;;1.35;1.13;;;;;;;12.96;53.43;101030.09;8053553;28;20032;-68
2021/09/19 02:14:43;;;;;;;1.52;1.10;;;;;;;12.94;53.40;101029.34;8050759;28;20032;-69
2021/09/19 02:18:34;;;;;;;1.20;1.00;;;;;;;12.92;53.58;101018.94;8054291;28;20511;-68
2021/09/19 02:22:26;;;;;;;1.90;1.00;;;;;;;12.89;53.24;101021.78;8054688;28;20620;-68
2021/09/19 02:26:17;;;;;;;1.23;1.10;;;;;;;12.84;53.32;101015.19;8050118;28;20050;-68
2021/09/19 02:30:11;;;;;;;1.10;1.00;;;;;;;12.83;53.51;101022.25;8053215;28;20065;-68
2021/09/19 02:34:02;;;;;;;3.22;1.25;;;;;;;12.81;53.60;101010.94;8051938;28;20028;-68
2021/09/19 02:37:52;;;;;;;1.85;1.20;;;;;;;12.79;53.54;101015.50;8053404;28;20028;-69
2021/09/19 02:41:43;;;;;;;1.08;0.98;;;;;;;12.75;53.55;101016.69;8052963;28;20037;-68
2021/09/19 02:45:34;;;;;;;1.00;0.90;;;;;;;12.72;53.55;101008.16;8053357;28;20510;-68
2021/09/19 02:49:24;;;;;;;0.95;0.75;;;;;;;12.70;53.45;101016.16;8054291;28;20112;-68
2021/09/19 02:53:15;;;;;;;0.90;0.90;;;;;;;12.66;53.74;101008.59;8053806;28;20033;-68
2021/09/19 02:57:05;;;;;;;1.98;1.02;;;;;;;12.64;53.55;101010.50;8059463;28;20040;-68
2021/09/19 03:00:56;;;;;;;1.00;1.00;;;;;;;12.54;53.85;100994.50;8060643;28;20076;-68
2021/09/19 03:04:47;;;;;;;0.98;0.88;;;;;;;12.56;53.71;100999.66;8060670;28;20490;-68
2021/09/19 03:08:37;;;;;;;1.00;0.90;;;;;;;12.56;53.71;101000.47;8066409;28;20030;-68
2021/09/19 03:12:28;;;;;;;2.20;1.10;;;;;;;12.50;53.61;100999.13;8037238;28;20032;-68
2021/09/19 03:16:19;;;;;;;3.05;1.70;;;;;;;12.50;53.86;101000.94;8050857;28;20442;-69
2021/09/19 03:20:14;;;;;;;1.23;1.00;;;;;;;12.46;53.64;101000.31;8060221;28;20063;-68
2021/09/19 03:24:05;;;;;;;1.15;1.00;;;;;;;12.44;53.77;101004.84;8055979;28;20033;-68
2021/09/19 03:27:57;;;;;;;1.27;1.00;;;;;;;12.37;53.87;100998.34;8060057;28;20035;-68
2021/09/19 03:31:47;;;;;;;1.25;0.95;;;;;;;12.39;53.99;101003.50;8059870;28;20044;-68
2021/09/19 03:35:38;;;;;;;1.15;1.00;;;;;;;12.36;53.83;101006.34;8059488;28;20035;-68
2021/09/19 03:39:29;;;;;;;1.33;0.90;;;;;;;12.28;53.98;101001.63;8053524;28;20043;-68
2021/09/19 03:43:19;;;;;;;1.73;0.80;;;;;;;12.30;54.23;101004.16;8057432;28;20499;-69
2021/09/19 03:47:10;;;;;;;1.80;1.08;;;;;;;12.25;53.99;100996.56;8057786;28;20024;-68
2021/09/19 03:51:02;;;;;;;2.05;1.23;;;;;;;12.27;54.12;101009.66;8057515;28;20032;-68
2021/09/19 03:54:52;;;;;;;1.00;0.90;;;;;;;12.24;54.07;101004.56;8057454;28;20040;-69
2021/09/19 03:58:43;;;;;;;2.55;1.02;;;;;;;12.22;54.20;100999.44;8057029;28;20032;-68
2021/09/19 04:02:33;;;;;;;1.15;1.00;;;;;;;12.20;54.01;100997.84;8057451;28;20051;-68
2021/09/19 04:06:24;;;;;;;2.10;1.20;;;;;;;12.18;54.27;101002.38;8056967;28;20483;-69
2021/09/19 04:10:15;;;;;;;1.42;0.82;;;;;;;12.16;54.36;101009.53;8054415;28;20390;-68
2021/09/19 04:14:05;;;;;;;2.38;0.90;;;;;;;12.14;54.28;101008.81;8053964;28;20142;-68
2021/09/19 04:17:56;;;;;;;1.15;0.95;;;;;;;12.12;54.29;101010.72;8056453;28;20767;-68
2021/09/19 04:21:47;;;;;;;2.05;1.10;;;;;;;12.08;54.32;101010.94;8056761;28;20082;-69
2021/09/19 04:25:37;;;;;;;1.35;1.23;;;;;;;12.07;54.45;101005.75;8056875;28;20143;-68
2021/09/19 04:29:28;;;;;;;1.92;1.23;;;;;;;12.01;54.21;101009.69;8058050;28;20180;-68
2021/09/19 04:33:18;;;;;;;5.00;0.93;;;;;;;12.02;54.49;101016.59;8057415;28;20480;-68
2021/09/19 04:37:14;;;;;;;1.15;1.00;;;;;;;12.01;54.36;101014.09;8059926;28;20089;-68
2021/09/19 04:41:04;;;;;;;1.00;1.00;;;;;;;11.99;54.36;101018.63;8059813;28;20500;-68
2021/09/19 04:44:55;;;;;;;1.20;1.00;;;;;;;11.97;54.26;101023.16;8056985;28;20115;-68
2021/09/19 04:48:46;;;;;;;0.82;0.80;;;;;;;11.94;54.41;101031.25;8057405;28;20036;-68
2021/09/19 04:52:36;;;;;;;1.25;1.10;;;;;;;11.92;54.26;101023.47;8048748;28;20045;-68
2021/09/19 04:56:28;;;;;;;2.15;1.30;;;;;;;11.88;54.47;101022.00;8057489;28;20109;-68
2021/09/19 05:00:18;;;;;;;1.38;0.90;;;;;;;11.85;54.48;101021.38;8057027;28;20025;-68
2021/09/19 05:04:09;;;;;;;1.30;1.10;;;;;;;11.83;54.46;101024.09;8056808;28;20038;-68
2021/09/19 05:08:00;;;;;;;1.20;1.08;;;;;;;11.81;54.50;101023.34;8050353;28;20426;-68
2021/09/19 05:11:50;;;;;;;1.20;1.05;;;;;;;11.78;54.55;101023.56;8045854;28;20484;-68
2021/09/19 05:15:41;;;;;;;0.75;0.75;;;;;;;11.77;54.63;101018.44;8054548;28;20024;-68
2021/09/19 05:19:32;;;;;;;4.03;1.10;;;;;;;11.77;54.59;101026.34;8054345;28;20088;-68
2021/09/19 05:23:22;;;;;;;1.15;1.05;;;;;;;11.76;54.68;101019.38;8054023;28;20032;-68
2021/09/19 05:27:13;;;;;;;1.92;1.25;;;;;;;11.74;54.61;101021.25;8055101;28;20023;-68
2021/09/19 05:31:03;;;;;;;2.42;1.23;;;;;;;11.73;54.91;101025.69;8054828;28;20031;-68
2021/09/19 05:34:54;;;;;;;3.05;1.30;;;;;;;11.73;55.12;101012.50;8052158;28;20038;-68
2021/09/19 05:38:45;;;;;;;1.73;1.10;;;;;;;11.75;54.95;101021.16;8055684;28;20115;-68
2021/09/19 05:42:35;;;;;;;1.02;1.00;;;;;;;11.77;55.13;101031.59;8055146;28;20032;-68
2021/09/19 05:46:26;;;;;;;1.92;1.35;;;;;;;11.82;54.94;101029.47;8054215;28;20043;-68
2021/09/19 05:50:17;;;;;;;1.60;1.25;;;;;;;11.85;55.35;101030.13;8053654;28;20730;-68
2021/09/19 05:54:07;;;;;;;2.13;1.13;;;;;;;11.73;55.52;101003.81;8054165;28;20030;-68
2021/09/19 05:57:58;;;;;;;1.42;1.30;;;;;;;11.92;55.53;101026.13;8054751;28;20036;-68
2021/09/19 06:01:48;;;;;;;3.17;1.15;;;;;;;12.00;55.50;101031.69;8054680;28;20028;-68
2021/09/19 06:05:39;;;;;;;1.25;1.15;;;;;;;12.05;55.29;101036.63;8053996;28;20047;-68
2021/09/19 06:09:30;;;;;;;1.40;1.30;;;;;;;12.12;55.61;101034.41;8052643;28;20047;-68
2021/09/19 06:13:20;;;;;;;1.30;1.20;;;;;;;12.18;56.09;101031.34;8054430;28;20081;-68
2021/09/19 06:17:11;;;;;;;3.58;1.00;;;;;;;12.27;55.92;101039.44;8056134;28;20139;-68
2021/09/19 06:21:03;;;;;;;1.70;1.17;;;;;;;12.38;55.81;101036.91;8053850;28;20031;-68
2021/09/19 06:24:53;;;;;;;1.52;1.20;;;;;;;12.48;55.90;101043.19;8059157;28;20583;-68
2021/09/19 06:28:44;;;;;;;1.15;1.05;;;;;;;12.52;56.08;101020.09;8047244;28;20032;-68
2021/09/19 06:32:35;;;;;;;1.38;1.27;;;;;;;12.79;56.24;101039.22;8053760;28;20060;-68
2021/09/19 06:36:26;;;;;;;1.75;1.00;;;;;;;12.97;56.06;101032.59;8051009;28;20056;-68
2021/09/19 06:40:16;;;;;;;0.90;0.90;;;;;;;13.28;56.18;101041.72;8054277;28;20040;-68
2021/09/19 06:44:07;;;;;;;1.20;1.00;;;;;;;13.64;56.08;101040.78;8053934;28;20383;-68
2021/09/19 06:47:58;;;;;;;0.80;0.80;;;;;;;14.04;56.14;101035.94;8040906;28;20047;-68
2021/09/19 06:51:49;;;;;;;1.08;1.00;;;;;;;14.24;55.85;101034.34;8034012;28;20032;-69
2021/09/19 06:55:39;;;;;;;1.15;1.05;;;;;;;14.32;55.66;101046.00;8045850;28;20051;-68
2021/09/19 06:59:30;;;;;;;1.33;1.20;;;;;;;14.34;55.66;101044.06;8036503;28;20571;-68
2021/09/19 07:03:20;;;;;;;1.48;1.13;;;;;;;14.34;55.70;101051.16;8037328;28;20126;-68
2021/09/19 07:07:11;;;;;;;1.92;1.38;;;;;;;14.34;55.73;101048.50;8031213;28;20028;-68
2021/09/19 07:11:02;;;;;;;1.70;1.20;;;;;;;14.34;55.49;101038.78;8033351;28;20036;-68
2021/09/19 07:14:53;;;;;;;1.20;1.10;;;;;;;14.38;55.50;101045.50;8032175;28;20090;-68
2021/09/19 07:18:43;;;;;;;1.27;1.17;;;;;;;14.41;55.59;101049.72;8037023;28;20048;-68
2021/09/19 07:22:36;;;;;;;1.27;1.17;;;;;;;14.47;55.79;101051.06;8039382;28;20031;-68
2021/09/19 07:26:26;;;;;;;2.65;1.05;;;;;;;14.50;55.59;101035.81;8039235;28;20492;-68
2021/09/19 07:30:17;;;;;;;2.00;1.48;;;;;;;14.59;55.52;101055.34;8036543;28;20107;-68
2021/09/19 07:34:08;;;;;;;1.65;1.55;;;;;;;14.64;55.44;101047.91;8040257;28;20035;-68
2021/09/19 07:37:59;;;;;;;2.28;1.42;;;;;;;14.73;55.48;101055.94;8037144;28;20068;-68
2021/09/19 07:41:53;;;;;;;3.28;1.60;;;;;;;14.80;55.53;101046.53;8042907;28;20163;-68
2021/09/19 07:45:44;;;;;;;1.60;1.42;;;;;;;14.96;55.34;101050.63;8039452;28;20032;-68
2021/09/19 07:49:36;;;;;;;1.30;1.20;;;;;;;15.16;55.38;101058.59;8043798;28;20036;-68
2021/09/19 07:53:27;;;;;;;1.63;1.25;;;;;;;15.52;55.54;101051.22;8038199;28;20112;-68
2021/09/19 07:57:18;;;;;;;2.15;1.33;;;;;;;16.05;55.73;101065.19;8031821;28;20098;-69
2021/09/19 08:01:08;;;;;;;2.00;1.17;;;;;;;16.59;55.69;101071.03;8045774;28;20027;-68
2021/09/19 08:04:59;;;;;;;1.23;1.10;;;;;;;17.23;55.49;101067.97;8062016;28;20085;-68
2021/09/19 08:08:50;;;;;;;1.60;1.17;;;;;;;17.93;54.60;101058.81;8051689;28;20741;-68
2021/09/19 08:12:43;;;;;;;1.80;1.17;;;;;;;18.58;54.15;101065.84;8051722;28;20029;-68
2021/09/19 08:16:37;;;;;;;1.77;1.17;;;;;;;19.06;53.32;101064.69;8057689;28;20577;-68
2021/09/19 08:20:28;;;;;;;1.35;1.20;;;;;;;19.31;53.04;101074.59;8057737;28;20039;-69
2021/09/19 08:24:19;;;;;;;1.40;1.20;;;;;;;19.45;52.56;101078.53;8051441;28;20112;-68
2021/09/19 08:28:10;;;;;;;1.52;1.30;;;;;;;19.54;53.10;101080.28;8058008;28;20032;-68
2021/09/19 08:32:01;;;;;;;1.38;1.25;;;;;;;19.59;52.96;101086.84;8058140;28;20025;-68
2021/09/19 08:35:56;;;;;;;2.45;1.50;;;;;;;19.66;52.57;101079.91;8054656;28;20021;-68
2021/09/19 08:39:47;;;;;;;1.58;1.35;;;;;;;19.74;52.92;101087.09;8060079;28;20032;-68
2021/09/19 08:43:38;;;;;;;1.35;1.25;;;;;;;19.84;53.07;101095.84;8055637;28;20028;-68
2021/09/19 08:47:30;;;;;;;1.48;1.20;;;;;;;19.93;53.20;101089.59;8053531;28;20028;-69
2021/09/19 08:51:21;;;;;;;3.67;1.48;;;;;;;20.05;52.82;101093.69;8021191;28;20810;-68
2021/09/19 08:55:11;;;;;;;2.38;1.63;;;;;;;20.06;52.54;101090.00;8027479;28;20028;-68
2021/09/19 08:59:03;;;;;;;2.70;1.27;;;;;;;20.13;52.40;101099.09;8020150;28;20036;-68
2021/09/19 09:02:54;;;;;;;1.50;1.20;;;;;;;20.16;52.00;101093.41;8021384;28;20111;-68
2021/09/19 09:06:45;;;;;;;2.20;1.70;;;;;;;20.19;51.94;101089.59;8022013;28;20033;-68
2021/09/19 09:10:37;;;;;;;1.23;1.13;;;;;;;20.17;51.80;101097.78;8022368;28;20063;-68
2021/09/19 09:14:28;;;;;;;1.50;1.33;;;;;;;20.18;51.44;101106.56;8019651;28;20400;-68
2021/09/19 09:18:40;;;;;;;1.38;1.25;;;;;;;20.13;51.07;101095.56;8019716;28;20067;-68
2021/09/19 09:22:33;;;;;;;1.58;1.20;;;;;;;20.12;50.97;101097.41;8027048;28;20040;-68
2021/09/19 09:26:30;;;;;;;1.10;1.00;;;;;;;20.07;50.76;101099.69;8016946;28;20029;-68
2021/09/19 09:30:25;;;;;;;2.38;1.20;;;;;;;20.00;50.70;101098.66;8016824;28;20033;-68
2021/09/19 09:34:19;;;;;;;1.20;1.10;;;;;;;19.92;50.31;101092.44;8029584;28;20425;-68
2021/09/19 09:38:21;;;;;;;1.25;1.10;;;;;;;19.82;50.10;101090.66;8017386;28;20040;-68
2021/09/19 09:42:20;;;;;;;1.08;0.98;;;;;;;19.75;49.97;101086.13;8018466;28;20036;-68
2021/09/19 09:46:11;;;;;;;1.60;1.20;;;;;;;19.66;49.96;101095.03;8023812;28;20031;-69
2021/09/19 09:50:05;;;;;;;1.50;0.90;;;;;;;19.55;49.12;101084.63;8021740;28;20032;-68
2021/09/19 09:54:00;;;;;;;1.27;0.93;;;;;;;19.44;49.12;101082.19;8024651;28;20064;-68
2021/09/19 09:58:11;;;;;;;0.95;0.90;;;;;;;19.35;49.50;101070.63;8024447;28;20037;-68
2021/09/19 10:02:03;;;;;;;1.10;1.00;;;;;;;19.26;49.41;101069.75;8017816;28;20082;-68
2021/09/19 10:05:54;;;;;;;1.60;1.20;;;;;;;19.24;49.23;101084.19;8021330;28;20032;-68
2021/09/19 10:09:45;;;;;;;0.80;0.80;;;;;;;19.17;48.56;101086.63;8020745;28;20029;-68
2021/09/19 10:13:44;;;;;;;0.95;0.85;;;;;;;19.14;48.96;101073.56;8015670;28;20064;-68
2021/09/19 10:17:36;;;;;;;1.20;1.00;;;;;;;19.14;48.99;101078.91;8019860;28;20681;-68
2021/09/19 10:21:31;;;;;;;2.38;1.45;;;;;;;19.13;48.36;101074.59;8023144;28;20037;-68
2021/09/19 10:25:52;;;;;;;2.53;0.90;;;;;;;19.13;48.33;101074.59;8019927;28;20025;-68
2021/09/19 10:29:45;;;;;;;0.80;0.80;;;;;;;19.17;48.44;101068.00;8016901;28;20102;-68
2021/09/19 10:33:36;;;;;;;1.10;1.00;;;;;;;19.28;48.36;101069.56;8015919;28;20044;-68
2021/09/19 10:37:53;;;;;;;2.30;1.00;;;;;;;19.36;48.39;101059.00;8018049;28;20041;-68
2021/09/19 10:42:25;;;;;;;1.45;0.90;;;;;;;19.45;48.28;101065.22;8019653;28;20409;-68
2021/09/19 10:46:34;;;;;;;1.40;0.90;;;;;;;19.51;47.82;101056.63;8017710;28;20560;-68
2021/09/19 10:50:29;;;;;;;1.20;1.10;;;;;;;19.58;47.87;101060.34;8012019;28;20076;-68
2021/09/19 10:54:42;;;;;;;1.10;1.00;;;;;;;19.58;47.37;101057.69;8020112;28;20020;-68
2021/09/19 10:58:46;;;;;;;1.00;0.90;;;;;;;19.60;47.68;101053.84;8017595;28;20430;-68
2021/09/19 11:02:39;;;;;;;0.70;0.70;;;;;;;19.62;47.54;101053.72;8022761;28;20036;-69
2021/09/19 11:06:34;;;;;;;0.90;0.90;;;;;;;19.62;47.42;101059.03;8013804;28;20036;-68
2021/09/19 11:10:24;;;;;;;0.88;0.88;;;;;;;19.65;47.42;101061.38;8025553;28;20042;-68
2021/09/19 11:14:15;;;;;;;0.98;0.90;;;;;;;19.62;47.27;101059.03;8022011;28;20021;-68
2021/09/19 11:18:22;;;;;;;0.95;0.85;;;;;;;19.64;46.92;101067.72;8022912;28;20036;-68
2021/09/19 11:22:23;;;;;;;0.77;0.77;;;;;;;19.65;46.96;101072.88;8026198;28;20112;-68
2021/09/19 11:26:16;;;;;;;1.77;0.93;;;;;;;19.65;46.84;101069.38;8031712;28;20039;-68
2021/09/19 11:30:09;;;;;;;0.73;0.73;;;;;;;19.62;46.61;101067.03;8031643;28;20043;-68
2021/09/19 11:34:07;;;;;;;0.80;0.80;;;;;;;19.58;46.59;101066.50;8029850;28;20446;-68
2021/09/19 11:38:02;;;;;;;1.05;0.88;;;;;;;19.48;46.67;101059.59;8031638;28;20044;-68
2021/09/19 11:41:53;;;;;;;0.80;0.80;;;;;;;19.52;46.36;101066.28;8026007;28;20059;-68
2021/09/19 11:45:44;;;;;;;1.20;1.10;;;;;;;19.43;46.34;101049.41;8026343;28;20033;-68
2021/09/19 11:49:34;;;;;;;1.02;0.93;;;;;;;19.47;46.41;101057.94;8021504;28;20040;-68
2021/09/19 11:53:25;;;;;;;1.10;1.00;;;;;;;19.48;46.58;101046.25;8028176;28;20032;-68
2021/09/19 11:57:16;;;;;;;1.38;0.95;;;;;;;19.50;46.43;101047.81;8026511;28;20656;-68
2021/09/19 12:01:07;;;;;;;2.55;1.00;;;;;;;19.47;46.34;101040.13;8025566;28;20589;-68
2021/09/19 12:05:00;;;;;;;1.15;0.95;;;;;;;19.49;46.26;101042.63;8019669;28;20146;-68
2021/09/19 12:08:50;;;;;;;1.25;1.15;;;;;;;19.46;46.17;101042.94;8027732;28;20519;-68
2021/09/19 12:12:41;;;;;;;1.10;1.00;;;;;;;19.44;46.03;101034.25;8024128;28;20035;-68
2021/09/19 12:16:32;;;;;;;1.25;1.00;;;;;;;19.44;46.16;101040.41;8024832;28;20024;-67
2021/09/19 12:20:22;;;;;;;2.17;1.10;;;;;;;19.47;46.00;101047.28;8022704;28;20037;-68
2021/09/19 12:24:13;;;;;;;1.85;0.95;;;;;;;19.46;46.10;101038.44;8031044;28;20037;-68
2021/09/19 12:28:03;;;;;;;1.17;1.05;;;;;;;19.51;46.14;101041.50;8024691;28;20038;-68
2021/09/19 12:31:54;;;;;;;1.30;1.20;;;;;;;19.56;45.73;101033.84;8023827;28;20201;-68
2021/09/19 12:35:45;;;;;;;2.03;1.10;;;;;;;19.53;46.05;101023.50;8023532;28;20031;-68
2021/09/19 12:39:35;;;;;;;1.30;1.20;;;;;;;19.55;46.20;101028.69;8022107;28;20039;-68
2021/09/19 12:43:28;;;;;;;2.28;1.63;;;;;;;19.50;45.87;101026.47;8024661;28;20041;-68
2021/09/19 12:47:19;;;;;;;9.23;1.80;;;;;;;19.50;46.24;101022.97;8027409;28;20032;-68
2021/09/19 12:51:15;;;;;;;3.10;1.60;;;;;;;19.48;46.25;101016.94;8027129;28;20028;-68
2021/09/19 12:55:14;;;;;;;1.65;1.10;;;;;;;19.47;46.30;101015.31;8023780;28;20044;-68
2021/09/19 12:59:04;;;;;;;2.30;1.70;;;;;;;19.48;46.10;101016.94;8023237;28;20127;-68
2021/09/19 13:03:04;;;;;;;2.63;1.60;;;;;;;19.46;46.05;101011.81;8026787;28;20055;-68
2021/09/19 13:06:54;;;;;;;1.48;1.38;;;;;;;19.45;46.46;101022.59;8022430;28;20025;-68
2021/09/19 13:10:46;;;;;;;2.10;1.50;;;;;;;19.41;46.22;101002.59;8022039;28;20052;-67
2021/09/19 13:14:38;;;;;;;1.45;1.35;;;;;;;19.48;46.45;101008.97;8022476;28;20029;-68
2021/09/19 13:18:28;;;;;;;2.35;1.70;;;;;;;19.48;46.34;101012.47;8027932;28;20141;-68
2021/09/19 13:22:19;;;;;;;2.70;1.48;;;;;;;19.47;46.41;101008.16;8026862;28;20041;-68
2021/09/19 13:26:09;;;;;;;1.45;1.35;;;;;;;19.47;45.89;101016.16;8017035;28;20035;-68
2021/09/19 13:30:00;;;;;;;2.25;1.60;;;;;;;19.46;46.08;101017.13;8018565;28;20055;-68
2021/09/19 13:33:52;;;;;;;1.83;1.25;;;;;;;19.45;45.49;101012.78;8031949;28;20388;-68
2021/09/19 13:37:44;;;;;;;1.90;1.45;;;;;;;19.47;45.37;101020.63;8019190;28;20048;-68
2021/09/19 13:41:35;;;;;;;1.70;1.45;;;;;;;19.41;45.23;101008.75;8028159;28;20040;-68
2021/09/19 13:45:25;;;;;;;4.00;1.60;;;;;;;19.47;45.28;101016.16;8029688;28;20063;-69
2021/09/19 13:49:20;;;;;;;1.40;1.30;;;;;;;19.45;45.15;101020.78;8025616;28;20047;-68
2021/09/19 13:53:11;;;;;;;1.40;1.20;;;;;;;19.43;44.95;101017.44;8016433;28;20104;-68
2021/09/19 13:57:02;;;;;;;1.50;1.20;;;;;;;19.43;44.93;101016.63;8021182;28;20056;-68
2021/09/19 14:00:52;;;;;;;1.45;1.15;;;;;;;19.41;44.60;101019.41;8024104;28;20511;-67
2021/09/19 14:04:43;;;;;;;1.83;1.27;;;;;;;19.41;45.06;101023.91;8021690;28;20120;-68
2021/09/19 14:08:34;;;;;;;1.90;1.67;;;;;;;19.43;44.63;101027.25;8022268;28;20033;-68
2021/09/19 14:12:25;;;;;;;1.73;1.45;;;;;;;19.39;44.92;101023.25;8027762;28;20078;-68
2021/09/19 14:16:16;;;;;;;5.95;1.60;;;;;;;19.36;44.62;101027.88;8025101;28;20036;-68
2021/09/19 14:20:08;;;;;;;2.33;1.70;;;;;;;19.31;44.73;101032.81;8022204;28;20090;-68
2021/09/19 14:24:00;;;;;;;2.28;1.60;;;;;;;19.29;44.68;101037.47;8027792;28;20029;-68
2021/09/19 14:27:51;;;;;;;2.08;1.48;;;;;;;19.23;44.63;101032.75;8023130;28;20066;-68
2021/09/19 14:31:42;;;;;;;2.75;1.83;;;;;;;19.19;44.49;101042.03;8023118;28;20032;-68
2021/09/19 14:35:32;;;;;;;2.00;1.73;;;;;;;19.15;44.73;101037.16;8020116;28;20037;-68
2021/09/19 14:39:24;;;;;;;1.98;1.70;;;;;;;19.13;44.85;101042.63;8022697;28;20036;-68
2021/09/19 14:43:15;;;;;;;1.80;1.60;;;;;;;19.11;44.69;101036.59;8025395;28;20032;-68
2021/09/19 14:47:05;;;;;;;1.88;1.45;;;;;;;19.11;44.84;101039.28;8020492;28;20039;-68
2021/09/19 14:50:56;;;;;;;1.95;1.67;;;;;;;19.13;44.83;101036.47;8024773;28;20564;-68
2021/09/19 14:54:47;;;;;;;2.42;1.50;;;;;;;19.08;44.93;101026.28;8026390;28;20025;-68
2021/09/19 14:58:37;;;;;;;2.83;1.90;;;;;;;19.11;45.05;101033.94;8029478;28;20040;-69
2021/09/19 15:02:28;;;;;;;1.65;1.48;;;;;;;19.13;45.00;101039.97;8036094;28;20063;-68
2021/09/19 15:06:19;;;;;;;1.83;1.40;;;;;;;19.12;44.54;101034.78;8032483;28;20550;-68
2021/09/19 15:10:11;;;;;;;2.80;1.67;;;;;;;19.08;44.50;101041.41;8031506;28;20067;-68
2021/09/19 15:14:01;;;;;;;2.05;1.55;;;;;;;19.03;44.74;101047.19;8027734;28;20468;-68
2021/09/19 15:17:52;;;;;;;1.88;1.40;;;;;;;18.96;44.39;101039.97;8023311;28;20031;-68
2021/09/19 15:21:43;;;;;;;1.33;1.23;;;;;;;18.97;44.38;101053.13;8029124;28;20036;-68
2021/09/19 15:25:33;;;;;;;1.73;1.30;;;;;;;18.97;44.44;101046.97;8024778;28;20044;-68
2021/09/19 15:29:25;;;;;;;1.40;1.30;;;;;;;18.97;45.13;101045.16;8018029;28;20116;-68
2021/09/19 15:33:16;;;;;;;1.27;1.17;;;;;;;18.98;44.52;101044.13;8025535;28;20047;-68
2021/09/19 15:37:06;;;;;;;1.38;1.20;;;;;;;18.93;44.43;101044.59;8029763;28;20041;-68
2021/09/19 15:40:58;;;;;;;1.30;1.20;;;;;;;18.92;44.59;101044.75;8024640;28;20158;-68
2021/09/19 15:44:49;;;;;;;1.92;1.17;;;;;;;18.89;44.26;101045.88;8024581;28;20039;-68
2021/09/19 15:48:43;;;;;;;1.63;1.45;;;;;;;18.84;44.37;101040.19;8025524;28;20036;-68
2021/09/19 15:52:33;;;;;;;1.90;1.50;;;;;;;18.80;44.20;101049.47;8032964;28;20033;-68
2021/09/19 15:56:24;;;;;;;2.00;1.30;;;;;;;18.75;44.37;101046.41;8025346;28;20032;-68
2021/09/19 16:00:15;;;;;;;3.65;1.40;;;;;;;18.71;44.08;101050.34;8026756;28;20605;-68
2021/09/19 16:04:06;;;;;;;1.73;1.33;;;;;;;18.66;44.34;101049.13;8024408;28;20025;-68
2021/09/19 16:07:56;;;;;;;1.58;1.30;;;;;;;18.60;44.29;101045.25;8022407;28;20041;-68
2021/09/19 16:11:47;;;;;;;1.00;0.90;;;;;;;18.54;44.33;101039.69;8026700;28;20033;-68
2021/09/19 16:15:38;;;;;;;1.40;1.30;;;;;;;18.45;44.33;101036.91;8025975;28;20025;-68
2021/09/19 16:19:28;;;;;;;1.10;1.00;;;;;;;18.44;44.21;101042.38;8019868;28;20049;-68
2021/09/19 16:23:19;;;;;;;2.65;1.75;;;;;;;18.39;44.33;101045.47;8029332;28;20036;-68
2021/09/19 16:27:11;;;;;;;1.73;1.25;;;;;;;18.36;44.01;101045.75;8023140;28;20526;-67
2021/09/19 16:31:02;;;;;;;1.50;1.10;;;;;;;18.31;44.32;101044.53;8023567;28;20564;-68
2021/09/19 16:34:52;;;;;;;1.50;1.38;;;;;;;18.28;44.47;101050.13;8024566;28;20035;-68
2021/09/19 16:38:44;;;;;;;1.70;1.50;;;;;;;18.22;44.20;101043.59;8022712;28;20750;-68
2021/09/19 16:42:34;;;;;;;1.85;1.50;;;;;;;18.18;44.27;101046.69;8029958;28;20435;-68
2021/09/19 16:46:25;;;;;;;2.00;1.48;;;;;;;18.12;44.67;101047.25;8029240;28;20542;-68
2021/09/19 16:50:17;;;;;;;1.73;1.30;;;;;;;18.06;44.50;101048.69;8027147;28;20492;-68
2021/09/19 16:54:07;;;;;;;2.00;1.50;;;;;;;18.02;44.33;101046.47;8027635;28;20051;-68
2021/09/19 16:57:58;;;;;;;1.92;1.50;;;;;;;17.96;44.66;101046.06;8030520;28;20041;-68
2021/09/19 17:01:49;;;;;;;1.58;1.40;;;;;;;17.85;44.63;101042.75;8021063;28;20144;-68
2021/09/19 17:05:43;;;;;;;2.35;1.90;;;;;;;17.84;44.84;101054.34;8020501;28;20550;-69
2021/09/19 17:09:34;;;;;;;1.55;1.45;;;;;;;17.80;45.25;101063.59;8015784;28;20558;-68
2021/09/19 17:13:25;;;;;;;2.05;1.70;;;;;;;17.72;45.11;101061.66;8026797;28;20032;-68
2021/09/19 17:17:15;;;;;;;1.70;1.60;;;;;;;17.60;45.03;101051.31;8027074;28;20035;-68
2021/09/19 17:21:06;;;;;;;2.50;1.35;;;;;;;17.59;45.30;101062.91;8016705;28;20492;-68
2021/09/19 17:24:57;;;;;;;1.67;1.40;;;;;;;17.50;45.06;101064.59;8020005;28;20425;-68
2021/09/19 17:28:47;;;;;;;2.33;1.52;;;;;;;17.43;45.24;101074.94;8025798;28;20032;-68
2021/09/19 17:32:38;;;;;;;2.70;1.55;;;;;;;17.36;45.49;101076.47;8019567;28;20561;-67
2021/09/19 17:36:29;;;;;;;1.35;1.20;;;;;;;17.27;45.68;101079.97;8024261;28;20033;-67
2021/09/19 17:40:20;;;;;;;1.50;1.20;;;;;;;17.17;45.38;101076.47;8021839;28;20066;-67
2021/09/19 17:44:10;;;;;;;2.08;1.40;;;;;;;17.12;45.61;101085.81;8023326;28;20020;-68
2021/09/19 17:48:01;;;;;;;2.17;1.92;;;;;;;17.04;45.69;101090.00;8023424;28;20077;-67
2021/09/19 17:51:52;;;;;;;1.83;1.63;;;;;;;16.96;45.70;101092.50;8015628;28;20104;-68
2021/09/19 17:55:43;;;;;;;2.67;1.98;;;;;;;16.89;45.76;101095.81;8024896;28;20154;-67
2021/09/19 17:59:34;;;;;;;1.70;1.40;;;;;;;16.81;45.92;101098.31;8020797;28;20036;-68